Time;durP1;ratioP1;P1;durP2;ratioP2;P2;SDS_P1;SDS_P2;PMS_P1;PMS_P2;Temp;Humidity;BMP_temperature;BMP_pressure;BME280_temperature;BME280_humidity;BME280_pressure;Samples;Min_cycle;Max_cycle;Signal;HPM_P1;HPM_P2
2021/07/26 00:00:59;;;;;;;16.02;10.93;;;;;;;22.61;72.33;100643.03;5073072;28;20024;-84
2021/07/26 00:03:25;;;;;;;23.30;14.82;;;;;;;22.58;72.79;100638.81;5073011;28;20035;-84
2021/07/26 00:05:58;;;;;;;21.23;12.55;;;;;;;22.53;72.81;100646.88;5072626;28;20468;-83
2021/07/26 00:08:23;;;;;;;16.45;10.65;;;;;;;22.49;72.98;100645.59;5072618;28;20077;-83
2021/07/26 00:10:57;;;;;;;21.25;13.00;;;;;;;22.49;72.92;100640.94;5072175;28;20028;-84
2021/07/26 00:13:23;;;;;;;27.55;15.90;;;;;;;22.45;72.97;100642.44;5072074;28;20034;-84
2021/07/26 00:15:48;;;;;;;28.83;15.23;;;;;;;22.43;72.95;100635.50;5072064;28;20139;-84
2021/07/26 00:18:13;;;;;;;19.25;12.85;;;;;;;22.41;73.21;100633.00;5072410;28;20024;-84
2021/07/26 00:20:38;;;;;;;27.88;15.75;;;;;;;22.41;72.95;100635.72;5071630;28;20033;-84
2021/07/26 00:23:04;;;;;;;24.52;14.98;;;;;;;22.42;72.86;100637.41;5071741;28;20028;-84
2021/07/26 00:25:29;;;;;;;26.38;14.98;;;;;;;22.41;72.80;100643.94;5071360;28;20032;-84
2021/07/26 00:27:54;;;;;;;20.75;12.50;;;;;;;22.43;72.30;100639.06;5071584;28;20028;-84
2021/07/26 00:30:20;;;;;;;30.90;15.40;;;;;;;22.43;72.28;100640.97;5071603;28;20376;-84
2021/07/26 00:32:45;;;;;;;30.75;14.68;;;;;;;22.42;72.06;100642.88;5069909;28;20111;-84
2021/07/26 00:35:11;;;;;;;30.27;15.95;;;;;;;22.35;72.63;100633.84;5071516;28;20039;-84
2021/07/26 00:37:36;;;;;;;28.70;14.93;;;;;;;22.31;73.03;100635.31;5071449;28;20028;-83
2021/07/26 00:40:07;;;;;;;26.30;14.73;;;;;;;22.25;73.15;100634.31;5071808;28;20464;-83
2021/07/26 00:42:32;;;;;;;;;;;;;;;22.19;74.20;100637.03;5072327;28;20705;-83
2021/07/26 00:44:58;;;;;;;31.05;13.68;;;;;;;22.22;73.52;100634.75;5071769;28;19924;-83
2021/07/26 00:47:23;;;;;;;54.00;15.18;;;;;;;22.21;73.72;100634.94;5071395;28;20034;-83
2021/07/26 00:49:49;;;;;;;26.98;14.13;;;;;;;22.21;73.80;100629.47;5071378;28;20368;-84
2021/07/26 00:52:15;;;;;;;23.85;14.73;;;;;;;22.15;74.53;100633.03;5072002;28;20043;-83
2021/07/26 00:54:42;;;;;;;25.10;13.10;;;;;;;22.14;74.34;100628.63;5069943;28;20032;-83
2021/07/26 00:57:08;;;;;;;18.60;11.70;;;;;;;22.11;74.94;100637.25;5072580;28;20112;-83
2021/07/26 00:59:34;;;;;;;31.35;16.65;;;;;;;22.03;74.87;100641.88;5071794;28;20024;-83
2021/07/26 01:02:00;;;;;;;19.98;12.10;;;;;;;22.11;74.39;100648.22;5072031;28;20060;-84
2021/07/26 01:04:26;;;;;;;19.10;11.13;;;;;;;22.08;74.25;100648.63;5071444;28;20108;-84
2021/07/26 01:06:53;;;;;;;22.52;13.88;;;;;;;21.96;74.80;100646.53;5071145;28;20127;-84
2021/07/26 01:09:19;;;;;;;23.27;15.85;;;;;;;21.96;74.66;100640.22;5070862;28;20037;-83
2021/07/26 01:11:45;;;;;;;22.35;14.95;;;;;;;21.95;74.46;100635.81;5070863;28;20031;-84
2021/07/26 01:14:11;;;;;;;28.13;15.48;;;;;;;21.87;75.43;100636.03;5070979;28;20055;-84
2021/07/26 01:16:37;;;;;;;26.40;15.93;;;;;;;21.87;75.32;100636.03;5071282;28;20107;-83
2021/07/26 01:19:02;;;;;;;30.73;17.58;;;;;;;21.78;76.20;100633.50;5070613;28;20777;-83
2021/07/26 01:21:29;;;;;;;24.55;16.67;;;;;;;21.88;75.34;100635.81;5070952;28;20041;-84
2021/07/26 01:23:55;;;;;;;38.03;19.00;;;;;;;21.82;75.68;100630.34;5071429;28;20055;-84
2021/07/26 01:26:22;;;;;;;33.50;18.48;;;;;;;21.87;75.27;100625.09;5071047;28;20436;-83
2021/07/26 01:28:54;;;;;;;40.75;20.25;;;;;;;21.92;74.99;100630.78;5068897;28;20021;-84
2021/07/26 01:31:19;;;;;;;25.08;16.02;;;;;;;21.94;74.89;100626.75;5070989;28;20033;-84
2021/07/26 01:33:46;;;;;;;38.58;19.27;;;;;;;21.96;74.43;100624.63;5069338;28;20119;-83
2021/07/26 01:36:12;;;;;;;38.17;19.98;;;;;;;21.85;75.12;100625.28;5070592;28;20051;-84
2021/07/26 01:38:38;;;;;;;32.03;17.63;;;;;;;21.92;74.93;100628.88;5070800;28;20028;-84
2021/07/26 01:41:04;;;;;;;32.38;16.83;;;;;;;21.94;74.86;100634.94;5070888;28;20032;-83
2021/07/26 01:43:34;;;;;;;37.95;18.85;;;;;;;21.74;76.05;100624.03;5070505;28;20547;-84
2021/07/26 01:46:02;;;;;;;40.20;19.48;;;;;;;21.79;75.82;100631.59;5070991;28;20526;-83
2021/07/26 01:48:38;;;;;;;28.60;16.85;;;;;;;21.86;74.82;100626.97;5071215;28;20037;-83
2021/07/26 01:51:40;;;;;;;34.42;19.40;;;;;;;21.88;74.56;100627.59;5071116;28;20032;-84
2021/07/26 01:54:06;;;;;;;35.90;16.50;;;;;;;21.79;75.47;100628.88;5057080;28;20071;-83
2021/07/26 01:56:33;;;;;;;36.22;19.23;;;;;;;21.88;74.90;100624.03;5069907;28;20423;-84
2021/07/26 01:59:00;;;;;;;35.63;18.60;;;;;;;21.87;74.87;100630.56;5069882;28;20082;-84
2021/07/26 02:01:25;;;;;;;28.63;17.20;;;;;;;21.88;74.29;100635.81;5070910;28;20039;-84
2021/07/26 02:03:51;;;;;;;28.05;17.00;;;;;;;21.88;74.03;100632.22;5069563;28;20025;-84
2021/07/26 02:06:16;;;;;;;28.92;17.17;;;;;;;21.83;74.56;100627.41;5071051;28;20024;-83
2021/07/26 02:08:41;;;;;;;32.53;17.67;;;;;;;21.75;74.33;100636.66;5070844;28;20111;-84
2021/07/26 02:11:06;;;;;;;23.60;13.95;;;;;;;21.73;74.81;100635.19;5069243;28;20024;-83
2021/07/26 02:13:35;;;;;;;20.80;14.00;;;;;;;21.70;73.92;100630.13;5069964;28;20107;-84
2021/07/26 02:16:01;;;;;;;18.25;13.10;;;;;;;21.69;74.10;100628.47;5069585;28;20509;-84
2021/07/26 02:18:26;;;;;;;23.98;13.65;;;;;;;21.69;73.86;100628.47;5070232;28;20043;-83
2021/07/26 02:20:51;;;;;;;16.58;11.30;;;;;;;21.62;73.65;100620.25;5070216;28;20086;-83
2021/07/26 02:23:17;;;;;;;20.42;12.52;;;;;;;21.57;73.84;100620.03;5070314;28;20029;-84
2021/07/26 02:25:42;;;;;;;19.02;13.15;;;;;;;21.56;73.60;100619.22;5069678;28;20031;-84
2021/07/26 02:28:08;;;;;;;28.58;16.60;;;;;;;21.57;73.92;100615.41;5069829;28;20020;-84
2021/07/26 02:30:34;;;;;;;28.88;15.93;;;;;;;21.54;74.12;100617.72;5069868;28;20103;-84
2021/07/26 02:32:59;;;;;;;19.70;11.20;;;;;;;21.47;73.99;100612.25;5068224;28;20544;-84
2021/07/26 02:35:24;;;;;;;21.52;11.52;;;;;;;21.45;74.34;100608.06;5068354;28;20028;-84
2021/07/26 02:37:51;;;;;;;16.02;11.30;;;;;;;21.39;74.83;100607.00;5068597;28;20033;-84
2021/07/26 02:40:17;;;;;;;28.10;12.55;;;;;;;21.42;74.73;100613.94;5070151;28;20024;-84
2021/07/26 02:42:42;;;;;;;25.00;16.15;;;;;;;21.43;75.23;100613.75;5068094;28;20025;-84
2021/07/26 02:45:08;;;;;;;25.05;14.68;;;;;;;21.46;75.34;100616.06;5069699;28;20376;-84
2021/07/26 02:47:33;;;;;;;28.00;12.40;;;;;;;21.51;75.55;100616.25;5069847;28;20498;-84
2021/07/26 02:49:58;;;;;;;24.63;12.30;;;;;;;21.56;75.49;100604.69;5067847;28;20094;-84
2021/07/26 02:52:24;;;;;;;24.38;14.55;;;;;;;21.62;75.25;100600.28;5069503;28;20119;-84
2021/07/26 02:54:49;;;;;;;18.67;11.23;;;;;;;21.64;75.07;100600.88;5067834;28;20115;-84
2021/07/26 02:57:14;;;;;;;20.10;11.60;;;;;;;21.66;75.35;100604.25;5069310;28;20155;-84
2021/07/26 02:59:40;;;;;;;26.25;13.50;;;;;;;21.72;74.87;100609.72;5069810;28;20380;-84
2021/07/26 03:02:06;;;;;;;37.80;19.35;;;;;;;21.83;74.88;100613.72;5067748;28;20763;-84
2021/07/26 03:04:31;;;;;;;30.08;16.63;;;;;;;21.89;75.46;100609.28;5067550;28;20028;-84
2021/07/26 03:06:56;;;;;;;21.60;13.10;;;;;;;21.93;74.89;100605.91;5069668;28;20488;-84
2021/07/26 03:09:22;;;;;;;30.20;14.40;;;;;;;21.82;75.82;100608.44;5068027;28;20029;-84
2021/07/26 03:11:47;;;;;;;40.22;18.83;;;;;;;21.86;76.14;100613.28;5069263;28;20035;-84
2021/07/26 03:14:12;;;;;;;29.17;14.77;;;;;;;21.93;76.21;100614.13;5069306;28;20028;-84
2021/07/26 03:16:37;;;;;;;40.63;19.95;;;;;;;21.95;76.73;100613.91;5067465;28;20553;-84
2021/07/26 03:19:03;;;;;;;34.65;17.05;;;;;;;21.92;76.80;100611.59;5071901;28;20035;-84
2021/07/26 03:21:28;;;;;;;31.63;15.30;;;;;;;21.88;77.15;100621.28;5072345;28;20546;-84
2021/07/26 03:23:53;;;;;;;34.55;16.23;;;;;;;21.85;77.55;100617.06;5072505;28;20060;-84
2021/07/26 03:26:19;;;;;;;37.88;19.67;;;;;;;21.83;78.16;100613.72;5072465;28;20032;-83
2021/07/26 03:28:45;;;;;;;58.25;24.20;;;;;;;21.94;77.75;100615.78;5071236;28;20024;-84
2021/07/26 03:31:11;;;;;;;72.28;28.27;;;;;;;22.03;77.51;100616.41;5072252;28;20024;-84
2021/07/26 03:33:36;;;;;;;50.65;24.45;;;;;;;22.09;77.23;100618.28;5072442;28;20120;-84
2021/07/26 03:36:02;;;;;;;74.10;27.42;;;;;;;22.14;77.62;100612.19;5072609;28;20457;-84
2021/07/26 03:38:27;;;;;;;63.72;27.98;;;;;;;22.13;77.77;100619.56;5074126;28;20111;-84
2021/07/26 03:40:53;;;;;;;49.08;21.50;;;;;;;22.15;76.85;100613.84;5072403;28;20036;-83
2021/07/26 03:43:18;;;;;;;49.05;21.00;;;;;;;22.13;76.72;100614.09;5071084;28;20386;-84
2021/07/26 03:45:44;;;;;;;52.75;24.00;;;;;;;22.06;77.04;100612.41;5075243;28;20107;-84
2021/07/26 03:48:10;;;;;;;51.53;24.92;;;;;;;22.07;77.49;100611.34;5071535;28;20028;-84
2021/07/26 03:50:35;;;;;;;50.10;23.67;;;;;;;22.06;77.66;100604.19;5073392;28;20060;-84
2021/07/26 03:53:00;;;;;;;50.83;23.58;;;;;;;22.11;77.55;100609.88;5073035;28;20391;-84
2021/07/26 03:55:31;;;;;;;49.40;21.88;;;;;;;22.15;76.98;100611.94;5072889;28;20082;-83
2021/07/26 03:58:00;;;;;;;34.38;18.73;;;;;;;22.18;76.96;100607.97;5072231;28;20029;-84
2021/07/26 04:00:30;;;;;;;53.92;23.55;;;;;;;22.18;76.73;100607.97;5072906;28;20032;-84
2021/07/26 04:05:49;;;;;;;23.40;16.25;;;;;;;22.18;76.37;100603.34;5071749;28;20035;-84
2021/07/26 04:08:22;;;;;;;49.75;22.48;;;;;;;22.12;76.72;100606.06;5057178;28;20023;-83
2021/07/26 04:10:51;;;;;;;47.80;22.77;;;;;;;22.13;77.38;100596.78;5078828;28;20039;-84
2021/07/26 04:13:17;;;;;;;48.58;21.50;;;;;;;22.19;77.64;100601.44;5076378;28;20034;-84
2021/07/26 04:15:45;;;;;;;29.55;15.75;;;;;;;22.16;77.49;100599.09;5083615;28;20051;-84
2021/07/26 04:18:11;;;;;;;49.65;26.05;;;;;;;22.12;77.49;100606.06;5070718;28;20020;-83
2021/07/26 04:20:37;;;;;;;40.33;20.95;;;;;;;22.16;77.38;100607.31;5082793;28;20039;-84
2021/07/26 04:23:02;;;;;;;46.60;22.10;;;;;;;22.23;76.91;100611.75;5067792;28;20032;-84
2021/07/26 04:25:28;;;;;;;38.40;21.10;;;;;;;22.33;76.74;100607.72;5082566;28;20036;-84
2021/07/26 04:27:53;;;;;;;29.35;17.85;;;;;;;22.38;76.62;100603.28;5071515;28;20063;-84
2021/07/26 04:30:21;;;;;;;32.92;17.02;;;;;;;22.38;76.59;100610.66;5083373;28;20111;-84
2021/07/26 04:32:47;;;;;;;32.80;18.85;;;;;;;22.36;77.42;100607.28;5074859;28;20024;-84
2021/07/26 04:35:14;;;;;;;30.08;16.70;;;;;;;22.42;77.28;100612.75;5075527;28;20547;-84
2021/07/26 04:37:41;;;;;;;39.70;20.85;;;;;;;22.48;77.24;100609.13;5084536;28;20545;-84
2021/07/26 04:40:08;;;;;;;37.88;20.27;;;;;;;22.53;77.41;100600.28;5070828;28;20112;-83
2021/07/26 04:42:35;;;;;;;28.98;16.85;;;;;;;22.59;76.94;100602.13;5080740;28;20028;-84
2021/07/26 04:45:00;;;;;;;29.20;15.23;;;;;;;22.61;77.38;100608.22;5077529;28;20482;-84
2021/07/26 04:47:25;;;;;;;39.38;20.65;;;;;;;22.61;77.94;100602.75;5073978;28;20035;-84
2021/07/26 04:49:50;;;;;;;42.17;21.90;;;;;;;22.68;77.75;100609.06;5084589;28;20060;-84
2021/07/26 04:52:16;;;;;;;40.53;20.80;;;;;;;22.73;77.82;100613.03;5072047;28;20024;-84
2021/07/26 04:54:41;;;;;;;42.80;23.05;;;;;;;22.79;78.18;100615.72;5079337;28;20476;-84
2021/07/26 04:57:06;;;;;;;51.88;25.63;;;;;;;22.82;78.67;100611.72;5076787;28;20027;-84
2021/07/26 04:59:32;;;;;;;42.97;22.88;;;;;;;22.84;77.99;100615.09;5083994;28;20039;-84
2021/07/26 05:01:57;;;;;;;36.17;22.85;;;;;;;23.01;77.97;100615.41;5070914;28;20033;-84
2021/07/26 05:04:22;;;;;;;44.90;23.80;;;;;;;23.01;78.08;100619.00;5082712;28;20066;-84
2021/07/26 05:06:48;;;;;;;27.88;17.15;;;;;;;23.15;77.08;100615.13;5075885;28;20118;-84
2021/07/26 05:09:13;;;;;;;32.55;20.15;;;;;;;23.27;76.83;100611.66;5074360;28;20024;-84
2021/07/26 05:11:40;;;;;;;35.67;21.27;;;;;;;23.33;76.90;100619.84;5081671;28;20046;-84
2021/07/26 05:14:07;;;;;;;28.58;19.25;;;;;;;23.30;77.13;100624.94;5071288;28;20025;-84
2021/07/26 05:16:32;;;;;;;44.53;21.83;;;;;;;23.43;76.43;100624.84;5079064;28;20129;-84
2021/07/26 05:18:58;;;;;;;44.45;22.75;;;;;;;23.49;76.92;100628.59;5076849;28;20028;-84
2021/07/26 05:21:24;;;;;;;36.75;20.83;;;;;;;23.54;77.00;100618.63;5073969;28;20035;-84
2021/07/26 05:23:50;;;;;;;33.95;20.88;;;;;;;23.60;76.50;100616.91;5084519;28;20171;-84
2021/07/26 05:26:15;;;;;;;37.40;21.20;;;;;;;23.62;76.64;100622.97;5071358;28;20031;-84
2021/07/26 05:28:40;;;;;;;28.63;18.30;;;;;;;23.65;75.65;100624.44;5079885;28;20032;-83
2021/07/26 05:31:06;;;;;;;23.17;16.40;;;;;;;23.70;75.01;100621.91;5076679;28;20024;-84
2021/07/26 05:33:31;;;;;;;35.72;20.42;;;;;;;23.68;75.66;100622.09;5072562;28;20075;-83
2021/07/26 05:35:56;;;;;;;30.48;19.25;;;;;;;23.74;75.14;100614.88;5083910;28;20024;-84
2021/07/26 05:38:22;;;;;;;25.10;18.33;;;;;;;23.78;74.77;100627.09;5072797;28;20030;-84
2021/07/26 05:40:48;;;;;;;33.42;20.48;;;;;;;23.66;75.61;100621.50;5078416;28;20395;-84
2021/07/26 05:43:14;;;;;;;32.17;21.38;;;;;;;23.49;75.68;100631.34;5079449;28;20036;-84
2021/07/26 05:45:39;;;;;;;36.03;21.83;;;;;;;23.43;76.25;100624.84;5071366;28;20145;-83
2021/07/26 05:48:05;;;;;;;31.23;21.20;;;;;;;23.35;76.56;100631.41;5082965;28;20476;-84
2021/07/26 05:50:31;;;;;;;33.88;21.70;;;;;;;23.42;76.20;100628.66;5070781;28;20020;-84
2021/07/26 05:52:56;;;;;;;39.65;23.95;;;;;;;23.44;76.23;100634.75;5077136;28;20779;-84
2021/07/26 05:55:22;;;;;;;37.10;23.27;;;;;;;23.48;76.15;100633.25;5080641;28;20024;-84
2021/07/26 05:57:49;;;;;;;31.65;22.17;;;;;;;23.67;75.11;100622.31;5069961;28;20520;-84
2021/07/26 06:00:24;;;;;;;37.47;25.23;;;;;;;23.69;75.26;100620.16;5070090;28;20479;-84
2021/07/26 06:02:50;;;;;;;38.60;23.38;;;;;;;23.72;74.65;100622.50;5077894;28;20123;-84
2021/07/26 06:05:15;;;;;;;35.17;23.70;;;;;;;23.70;74.97;100619.16;5078532;28;20539;-84
2021/07/26 06:07:41;;;;;;;34.78;22.85;;;;;;;23.77;74.47;100619.94;5070487;28;20039;-84
2021/07/26 06:10:07;;;;;;;35.15;24.70;;;;;;;23.67;75.70;100623.16;5083295;28;20028;-84
2021/07/26 06:12:32;;;;;;;30.23;21.17;;;;;;;23.83;74.79;100611.63;5073176;28;20123;-84
2021/07/26 06:14:57;;;;;;;30.67;23.05;;;;;;;23.90;74.42;100614.28;5074782;28;20373;-84
2021/07/26 06:17:23;;;;;;;28.85;22.88;;;;;;;23.80;74.71;100619.47;5078471;28;20030;-84
2021/07/26 06:19:48;;;;;;;30.38;22.30;;;;;;;23.77;75.16;100611.69;5069309;28;20131;-84
2021/07/26 06:22:17;;;;;;;30.77;19.65;;;;;;;23.75;74.76;100611.94;5081157;28;20078;-84
2021/07/26 06:24:42;;;;;;;29.90;20.73;;;;;;;23.80;74.44;100616.72;5073986;28;20036;-85
2021/07/26 06:27:08;;;;;;;32.45;24.38;;;;;;;23.84;73.83;100617.94;5075327;28;20028;-84
2021/07/26 06:29:33;;;;;;;24.77;18.98;;;;;;;23.94;74.07;100622.94;5081170;28;20107;-84
2021/07/26 06:31:59;;;;;;;33.30;23.10;;;;;;;23.99;73.49;100623.09;5069355;28;20024;-84
2021/07/26 06:34:24;;;;;;;30.90;21.50;;;;;;;24.01;73.57;100620.97;5079320;28;20384;-84
2021/07/26 06:36:49;;;;;;;27.63;20.13;;;;;;;24.09;73.91;100626.16;5066952;28;20040;-84
2021/07/26 06:39:15;;;;;;;34.13;21.88;;;;;;;24.13;74.24;100619.13;5058079;28;20069;-84
2021/07/26 06:41:41;;;;;;;33.90;21.67;;;;;;;24.26;74.25;100635.47;5080262;28;20040;-84
2021/07/26 06:44:06;;;;;;;33.15;22.90;;;;;;;24.30;72.97;100633.09;5069854;28;20036;-84
2021/07/26 06:46:32;;;;;;;26.13;18.25;;;;;;;24.45;72.29;100635.50;5080149;28;20472;-85
2021/07/26 06:48:58;;;;;;;30.50;20.08;;;;;;;24.45;72.00;100636.34;5073721;28;20030;-85
2021/07/26 06:51:23;;;;;;;27.60;18.35;;;;;;;24.43;71.62;100634.91;5072652;28;20032;-85
2021/07/26 06:53:49;;;;;;;27.25;19.40;;;;;;;24.45;72.03;100633.59;5085119;28;20032;-85
2021/07/26 06:56:14;;;;;;;23.75;20.30;;;;;;;24.44;70.84;100633.84;5074035;28;20061;-85
2021/07/26 06:58:43;;;;;;;28.88;21.70;;;;;;;24.57;71.26;100628.16;5085379;28;20803;-84
2021/07/26 07:01:11;;;;;;;26.38;19.40;;;;;;;24.58;71.12;100621.59;5078289;28;20499;-85
2021/07/26 07:03:38;;;;;;;23.40;18.58;;;;;;;24.66;70.51;100636.94;5082968;28;20439;-85
2021/07/26 07:06:08;;;;;;;31.65;20.65;;;;;;;24.59;71.18;100634.28;5072623;28;20032;-85
2021/07/26 07:08:34;;;;;;;27.50;20.07;;;;;;;24.36;71.54;100642.34;5082703;28;20029;-84
2021/07/26 07:11:04;;;;;;;25.90;18.70;;;;;;;24.32;71.37;100641.97;5079540;28;20035;-84
2021/07/26 07:13:30;;;;;;;23.95;18.25;;;;;;;24.23;72.12;100637.84;5074028;28;20028;-84
2021/07/26 07:15:55;;;;;;;25.33;18.25;;;;;;;24.23;71.64;100637.84;5085637;28;20122;-84
2021/07/26 07:18:21;;;;;;;25.15;18.73;;;;;;;24.19;72.55;100639.38;5073914;28;20059;-84
2021/07/26 07:20:46;;;;;;;22.50;18.48;;;;;;;24.21;72.21;100642.72;5080970;28;20435;-85
2021/07/26 07:23:11;;;;;;;26.90;21.48;;;;;;;24.19;73.34;100642.13;5079226;28;20038;-84
2021/07/26 07:25:37;;;;;;;28.73;23.33;;;;;;;24.14;73.02;100645.53;5074079;28;20431;-84
2021/07/26 07:28:02;;;;;;;26.10;21.15;;;;;;;23.98;72.98;100643.41;5070583;28;20536;-84
2021/07/26 07:30:27;;;;;;;28.13;21.00;;;;;;;24.00;73.23;100635.78;5089569;28;20114;-85
2021/07/26 07:32:53;;;;;;;37.00;22.33;;;;;;;24.08;73.55;100635.47;5080192;28;20127;-85
2021/07/26 07:35:18;;;;;;;27.65;20.65;;;;;;;24.14;71.96;100630.97;5080174;28;20036;-85
2021/07/26 07:37:43;;;;;;;28.90;19.75;;;;;;;24.16;71.42;100629.69;5072645;28;20031;-85
2021/07/26 07:40:09;;;;;;;31.77;19.30;;;;;;;24.28;71.61;100633.34;5085273;28;20029;-84
2021/07/26 07:42:36;;;;;;;28.35;21.00;;;;;;;24.34;71.17;100639.84;5075164;28;20062;-85
2021/07/26 07:45:01;;;;;;;27.27;21.80;;;;;;;24.38;71.49;100631.97;5078115;28;20028;-85
2021/07/26 07:47:26;;;;;;;21.42;18.60;;;;;;;24.36;71.27;100636.84;5081751;28;20480;-83
2021/07/26 07:49:53;;;;;;;22.33;17.00;;;;;;;24.46;71.51;100631.69;5072763;28;20482;-84
2021/07/26 07:52:18;;;;;;;21.90;17.02;;;;;;;24.43;71.58;100626.66;5085096;28;20375;-85
2021/07/26 07:54:43;;;;;;;24.52;16.73;;;;;;;24.43;72.00;100630.25;5068673;28;20029;-84
2021/07/26 07:57:09;;;;;;;22.38;18.20;;;;;;;24.48;71.30;100635.88;5079552;28;20032;-84
2021/07/26 07:59:34;;;;;;;24.83;15.63;;;;;;;24.66;70.50;100637.78;5083819;28;20032;-85
2021/07/26 08:02:05;;;;;;;19.23;16.50;;;;;;;24.81;69.52;100636.53;5071539;28;20035;-84
2021/07/26 08:04:31;;;;;;;26.55;18.08;;;;;;;24.84;68.41;100630.56;5081337;28;20028;-85
2021/07/26 08:06:56;;;;;;;27.10;17.17;;;;;;;25.07;68.21;100627.91;5076142;28;20096;-84
2021/07/26 08:09:21;;;;;;;16.88;14.82;;;;;;;25.03;68.52;100632.19;5075032;28;20028;-84
2021/07/26 08:11:47;;;;;;;21.20;16.52;;;;;;;25.25;67.92;100637.19;5084913;28;20028;-84
2021/07/26 08:14:12;;;;;;;20.67;14.27;;;;;;;25.51;68.18;100627.69;5055067;28;20023;-85
2021/07/26 08:16:37;;;;;;;20.20;14.38;;;;;;;25.73;68.22;100630.69;5081638;28;20173;-85
2021/07/26 08:19:03;;;;;;;20.27;15.02;;;;;;;25.81;68.71;100628.47;5079370;28;20819;-85
2021/07/26 08:21:28;;;;;;;23.65;13.63;;;;;;;26.11;66.49;100630.22;5072760;28;20052;-85
2021/07/26 08:23:53;;;;;;;22.10;14.18;;;;;;;26.06;66.35;100628.22;5084364;28;20039;-85
2021/07/26 08:26:20;;;;;;;19.15;13.75;;;;;;;26.18;65.57;100630.13;5070769;28;20024;-84
2021/07/26 08:28:45;;;;;;;23.25;14.35;;;;;;;26.12;65.65;100621.72;5078025;28;20039;-85
2021/07/26 08:31:10;;;;;;;17.90;12.55;;;;;;;26.13;65.27;100620.63;5077618;28;20654;-85
2021/07/26 08:33:36;;;;;;;16.38;11.90;;;;;;;26.24;65.23;100618.97;5071089;28;20025;-85
2021/07/26 08:36:01;;;;;;;20.83;12.02;;;;;;;26.14;65.98;100613.19;5083864;28;20437;-85
2021/07/26 08:38:26;;;;;;;18.13;11.68;;;;;;;26.11;66.13;100616.44;5072324;28;20738;-85
2021/07/26 08:40:52;;;;;;;19.65;11.32;;;;;;;26.08;65.65;100623.31;5076334;28;20443;-85
2021/07/26 08:43:17;;;;;;;18.08;12.20;;;;;;;26.01;65.65;100618.97;5078068;28;20028;-84
2021/07/26 08:45:44;;;;;;;22.45;13.60;;;;;;;25.99;65.71;100626.63;5071212;28;20032;-84
2021/07/26 08:48:10;;;;;;;20.85;13.13;;;;;;;25.75;65.94;100623.88;5082192;28;20032;-85
2021/07/26 08:50:37;;;;;;;21.63;13.02;;;;;;;25.76;67.19;100624.72;5072590;28;20390;-84
2021/07/26 08:53:06;;;;;;;26.23;12.43;;;;;;;25.72;67.65;100632.63;5076148;28;20024;-84
2021/07/26 08:55:34;;;;;;;19.60;12.38;;;;;;;25.76;67.98;100630.22;5081520;28;20046;-84
2021/07/26 08:57:59;;;;;;;21.88;13.27;;;;;;;25.54;68.12;100628.03;5067756;28;20082;-84
2021/07/26 09:00:25;;;;;;;20.83;12.95;;;;;;;25.76;68.10;100639.31;5072318;28;20028;-85
2021/07/26 09:02:51;;;;;;;20.38;12.65;;;;;;;25.92;67.41;100637.78;5077001;28;20036;-85
2021/07/26 09:05:17;;;;;;;22.50;11.40;;;;;;;26.13;67.35;100637.19;5079131;28;20035;-85
2021/07/26 09:07:44;;;;;;;18.13;12.05;;;;;;;26.18;66.36;100636.47;5071227;28;20025;-85
2021/07/26 09:10:21;;;;;;;15.82;11.60;;;;;;;26.44;65.26;100643.34;5084603;28;20096;-84
2021/07/26 09:12:52;;;;;;;19.48;12.57;;;;;;;26.48;64.78;100641.81;5075357;28;20121;-84
2021/07/26 09:15:17;;;;;;;23.05;11.57;;;;;;;26.60;65.50;100650.09;5073482;28;20048;-84
2021/07/26 09:17:44;;;;;;;22.77;12.67;;;;;;;26.51;65.76;100635.00;5082848;28;20032;-84
2021/07/26 09:20:11;;;;;;;18.92;12.45;;;;;;;26.71;64.45;100645.59;5068391;28;20286;-85
2021/07/26 09:22:41;;;;;;;18.20;12.38;;;;;;;26.64;64.27;100640.25;5078980;28;20043;-85
2021/07/26 09:25:22;;;;;;;17.58;11.57;;;;;;;26.57;64.44;100634.88;5078158;28;20441;-84
2021/07/26 09:27:57;;;;;;;18.65;11.68;;;;;;;26.56;64.79;100637.84;5068453;28;20094;-84
2021/07/26 09:30:23;;;;;;;22.77;12.02;;;;;;;26.43;64.06;100638.09;5081877;28;20055;-84
2021/07/26 09:32:48;;;;;;;20.58;12.30;;;;;;;26.57;64.65;100634.03;5073459;28;20047;-85
2021/07/26 09:35:14;;;;;;;17.08;11.38;;;;;;;26.65;64.81;100641.91;5072854;28;20427;-84
2021/07/26 09:37:41;;;;;;;19.98;12.90;;;;;;;26.62;63.72;100636.88;5082120;28;20036;-84
2021/07/26 09:40:22;;;;;;;16.33;11.00;;;;;;;26.90;64.22;100647.09;5070468;28;20082;-84
2021/07/26 09:42:51;;;;;;;17.20;11.30;;;;;;;27.17;63.14;100641.84;5079094;28;20878;-85
2021/07/26 09:45:25;;;;;;;16.85;11.35;;;;;;;27.57;61.51;100637.28;5077233;28;20023;-84
2021/07/26 09:48:07;;;;;;;20.70;12.98;;;;;;;28.05;60.19;100639.44;5068174;28;20032;-85
2021/07/26 09:50:34;;;;;;;19.27;12.00;;;;;;;28.37;58.71;100647.06;5079873;28;20150;-85
2021/07/26 09:53:27;;;;;;;11.98;10.73;;;;;;;28.43;58.32;100645.25;5076407;28;20032;-85
2021/07/26 09:55:54;;;;;;;17.85;12.13;;;;;;;28.45;57.71;100641.13;5067850;28;20407;-85
2021/07/26 09:58:34;;;;;;;17.75;11.65;;;;;;;28.36;58.44;100640.69;5081645;28;20118;-85
2021/07/26 10:01:00;;;;;;;18.38;12.27;;;;;;;28.31;57.63;100648.09;5075860;28;20036;-85
2021/07/26 10:03:26;;;;;;;18.85;11.63;;;;;;;28.35;58.58;100636.28;5079531;28;20034;-85
2021/07/26 10:05:53;;;;;;;13.32;10.45;;;;;;;28.45;58.64;100640.31;5069385;28;20082;-84
2021/07/26 10:08:20;;;;;;;18.92;11.85;;;;;;;28.62;57.52;100641.06;5081637;28;20090;-85
2021/07/26 10:10:46;;;;;;;14.57;10.50;;;;;;;28.64;57.46;100636.09;5073620;28;20484;-85
2021/07/26 10:13:11;;;;;;;14.98;10.85;;;;;;;28.82;57.20;100635.75;5072872;28;20040;-85
2021/07/26 10:15:37;;;;;;;15.38;10.82;;;;;;;28.97;57.29;100629.56;5080749;28;20507;-85
2021/07/26 10:18:03;;;;;;;15.52;10.38;;;;;;;29.16;55.55;100643.91;5069988;28;20063;-85
2021/07/26 10:20:35;;;;;;;13.38;11.07;;;;;;;29.19;54.24;100632.31;5080266;28;20043;-85
2021/07/26 10:23:09;;;;;;;12.88;11.50;;;;;;;29.38;53.79;100634.69;5074710;28;20423;-85
2021/07/26 10:25:46;;;;;;;13.20;10.95;;;;;;;29.38;53.30;100631.91;5070858;28;20082;-85
2021/07/26 10:28:21;;;;;;;11.68;10.48;;;;;;;29.48;53.26;100638.41;5084388;28;20093;-85
2021/07/26 10:30:49;;;;;;;13.65;10.57;;;;;;;29.36;53.43;100636.91;5076719;28;20065;-85
2021/07/26 10:33:14;;;;;;;12.02;10.32;;;;;;;29.33;52.87;100638.28;5076099;28;20031;-85
2021/07/26 10:35:47;;;;;;;14.23;11.63;;;;;;;29.39;53.06;100640.00;5083877;28;20020;-85
2021/07/26 10:38:12;;;;;;;16.05;10.75;;;;;;;29.28;53.59;100644.59;5056923;28;20144;-85
2021/07/26 10:40:39;;;;;;;16.90;11.35;;;;;;;29.13;53.30;100641.66;5081577;28;20147;-85
2021/07/26 10:43:05;;;;;;;14.65;12.23;;;;;;;29.04;52.48;100643.22;5079985;28;20035;-85
2021/07/26 10:45:31;;;;;;;12.82;11.32;;;;;;;28.90;54.31;100639.19;5073835;28;20033;-85
2021/07/26 10:48:30;;;;;;;15.33;12.47;;;;;;;28.67;53.07;100651.38;5086036;28;20088;-85
2021/07/26 10:50:57;;;;;;;16.48;11.55;;;;;;;28.73;53.68;100653.09;5079047;28;20311;-84
2021/07/26 10:53:31;;;;;;;20.10;11.88;;;;;;;28.53;54.32;100648.13;5076544;28;20059;-85
2021/07/26 10:56:09;;;;;;;12.38;11.20;;;;;;;28.70;54.48;100653.63;5085169;28;20036;-85
2021/07/26 10:58:40;;;;;;;14.20;12.15;;;;;;;28.43;53.79;100642.47;5064211;28;20024;-85
2021/07/26 11:01:26;;;;;;;19.25;13.02;;;;;;;28.59;53.22;100647.09;5068817;28;20024;-85
2021/07/26 11:03:57;;;;;;;13.05;11.68;;;;;;;28.52;53.50;100646.47;5083711;28;20354;-85
2021/07/26 11:06:38;;;;;;;13.15;11.10;;;;;;;28.80;54.10;100642.66;5062973;28;20148;-85
2021/07/26 11:09:19;;;;;;;16.75;11.48;;;;;;;29.03;51.96;100645.16;5062157;28;20052;-85
2021/07/26 11:11:45;;;;;;;;;;;;;;;29.19;53.23;100637.00;5083224;28;20020;-85